Latest Weather Observations for Grafton Airport

IDN60801

Issued at 8:04 am EDT Monday 22 December 2014 (issued every 30 minutes, with the page automatically refreshed every 10 minutes)

About weather observations | Map of weather stations | Latest weather observations for NSW | Other Formats
Station Details ID: 058161 Name: GRAFTON AIRPORT AWS Lat: -29.76 Lon: 153.03 Height: 25.09 m
Data from the previous 72 hours. | See also: Recent months for locations in New South Wales
Date/Time
EDT
Temp
°C
App
Temp
°C
Dew
Point
Rel
Hum
%
Delta-T
°C
Wind Press
QNH
hPa
Press
MSL
hPa
Rain
since 9 am
mm
Dir
 
Spd
km/h
Gust
km/h
Spd
kts
Gust
kts
22/08:00am 22.1 24.4 17.7 76 2.7 W 2 6 1 3 1018.6 1018.5 0.0
22/07:30am 20.1 23.0 18.2 89 1.2 CALM 0 0 0 0 1018.3 1018.2 0.0
22/07:00am 19.1 21.6 17.2 89 1.2 CALM 0 0 0 0 1018.0 1017.9 0.0
22/06:30am 18.7 21.1 17.0 90 1.0 CALM 0 0 0 0 1017.7 1017.6 0.0
22/06:00am 18.1 19.2 16.6 91 0.9 SSW 6 7 3 4 1017.5 1017.4 0.0
22/05:30am 18.5 20.2 16.3 87 1.3 ESE 2 6 1 3 1017.0 1016.9 0.0
22/05:00am 19.4 21.7 16.8 85 1.6 CALM 0 0 0 0 1017.1 1017.0 0.0
22/04:30am 19.8 22.3 17.2 85 1.6 CALM 0 0 0 0 1017.0 1016.9 0.0
22/04:00am 19.8 21.1 17.2 85 1.6 S 6 7 3 4 1017.0 1016.9 0.0
22/03:30am 20.0 22.5 17.2 84 1.7 CALM 0 0 0 0 1016.9 1016.8 0.0
22/03:00am 20.0 22.4 17.0 83 1.8 CALM 0 6 0 3 1017.0 1016.9 0.0
22/02:30am 20.0 22.3 16.8 82 1.9 CALM 0 0 0 0 1017.2 1017.1 0.0
22/02:00am 20.7 21.8 16.7 78 2.4 ENE 6 7 3 4 1017.2 1017.1 0.0
22/01:30am 21.0 22.3 17.0 78 2.4 ESE 6 7 3 4 1017.9 1017.8 0.0
22/01:00am 21.5 24.0 17.3 77 2.6 CALM 0 0 0 0 1019.0 1018.9 0.0
22/12:30am 21.7 24.2 17.3 76 2.7 CALM 0 0 0 0 1019.2 1019.1 0.0
22/12:00am 21.7 23.7 16.9 74 2.9 NE 2 6 1 3 1019.2 1019.1 0.0
 
Date/Time
EDT
Temp
°C
App
Temp
°C
Dew
Point
Rel
Hum
%
Delta-T
°C
Wind Press
QNH
hPa
Press
MSL
hPa
Rain
since 9 am
mm
Dir
 
Spd
km/h
Gust
km/h
Spd
kts
Gust
kts
21/11:30pm 21.8 24.3 17.2 75 2.8 CALM 0 0 0 0 1019.1 1019.0 0.0
21/11:00pm 22.0 24.5 17.2 74 2.9 CALM 0 0 0 0 1019.1 1019.0 0.0
21/10:30pm 22.2 23.8 16.9 72 3.2 NE 4 7 2 4 1019.0 1018.9 0.0
21/10:00pm 22.4 23.3 16.2 68 3.7 ENE 6 7 3 4 1018.8 1018.7 0.0
21/09:30pm 22.6 23.3 16.2 67 3.9 E 7 9 4 5 1018.5 1018.4 0.0
21/09:00pm 22.6 22.9 15.9 66 4.0 E 9 11 5 6 1018.2 1018.1 0.0
21/08:30pm 22.7 23.5 15.8 65 4.2 E 6 9 3 5 1018.2 1018.1 0.0
21/08:00pm 22.5 22.7 15.8 66 4.0 NE 9 13 5 7 1018.0 1017.9 0.0
21/07:30pm 23.1 22.1 15.7 63 4.5 ENE 15 20 8 11 1017.7 1017.6 0.0
21/07:00pm 23.4 22.8 15.7 62 4.6 ENE 13 24 7 13 1017.5 1017.4 0.0
21/06:30pm 23.7 22.5 16.2 63 4.6 ENE 17 24 9 13 1016.7 1016.6 0.0
21/06:00pm 23.9 22.4 16.2 62 4.7 E 19 26 10 14 1016.5 1016.4 0.0
21/05:30pm 24.6 23.5 16.3 60 5.1 E 17 24 9 13 1016.2 1016.1 0.0
21/05:00pm 25.9 24.5 17.0 58 5.5 ENE 20 30 11 16 1016.0 1015.9 0.0
21/04:30pm 27.2 26.0 17.4 55 6.2 ENE 20 30 11 16 1015.9 1015.8 0.0
21/04:00pm 26.5 25.1 17.0 56 5.9 ENE 20 35 11 19 1016.0 1015.9 0.0
21/03:30pm 26.7 25.7 17.5 57 5.8 E 19 28 10 15 1016.0 1015.9 0.0
21/03:00pm 26.4 25.9 17.7 58 5.5 ENE 17 26 9 14 1016.2 1016.1 0.0
21/02:30pm 26.6 26.2 17.1 56 5.9 ENE 15 20 8 11 1016.4 1016.3 0.0
21/02:00pm 27.0 26.8 17.5 56 6.0 NE 15 20 8 11 1016.6 1016.5 0.0
21/01:30pm 27.0 27.3 16.9 54 6.3 NE 11 17 6 9 1017.1 1017.0 0.0
21/01:00pm 27.0 27.8 17.2 55 6.1 NW 9 17 5 9 1017.3 1017.2 0.0
21/12:30pm 27.1 27.4 17.0 54 6.3 NNE 11 19 6 10 1017.9 1017.8 0.0
21/12:00pm 26.5 27.3 17.3 57 5.7 ENE 9 15 5 8 1018.3 1018.2 0.0
21/11:30am 25.3 26.1 17.2 61 5.0 N 9 15 5 8 1018.6 1018.5 0.0
21/11:00am 24.8 26.4 17.0 62 4.8 W 4 7 2 4 1018.9 1018.8 0.0
21/10:30am 24.4 25.4 16.9 63 4.6 W 7 11 4 6 1018.9 1018.8 0.0
21/10:00am 24.5 26.0 17.7 66 4.2 W 6 9 3 5 1018.9 1018.8 0.0
21/09:30am 23.2 24.9 18.1 73 3.2 NW 6 9 3 5 1019.1 1019.0 0.0
21/09:00am 22.0 24.4 18.0 78 2.5 WSW 2 7 1 4 1019.1 1019.0 0.0
21/08:30am 21.8 24.0 18.4 81 2.1 WSW 4 9 2 5 1019.0 1018.9 0.0
21/08:00am 20.9 22.9 18.7 87 1.4 SW 6 7 3 4 1018.7 1018.6 0.0
21/07:30am 20.3 22.2 18.6 90 1.1 SW 6 9 3 5 1018.5 1018.4 0.0
21/07:00am 19.9 22.6 18.6 92 0.8 SSW 2 7 1 4 1018.1 1018.0 0.0
21/06:30am 19.7 21.7 18.7 94 0.6 SSW 6 7 3 4 1017.6 1017.5 0.0
21/06:00am 19.6 21.3 18.6 94 0.6 SSW 7 9 4 5 1017.3 1017.2 0.0
21/05:30am 19.5 20.9 18.7 95 0.5 S 9 11 5 6 1017.1 1017.0 0.0
21/05:00am 19.5 20.5 18.7 95 0.5 S 11 13 6 7 1017.0 1016.9 0.0
21/04:30am 19.5 21.3 18.7 95 0.5 SW 7 9 4 5 1017.0 1016.9 0.0
21/04:00am 19.5 21.5 18.7 95 0.5 SW 6 7 3 4 1017.0 1016.9 0.0
21/03:30am 19.6 22.0 18.8 95 0.5 SW 4 7 2 4 1017.0 1016.9 0.0
21/03:00am 19.6 21.4 18.8 95 0.5 S 7 9 4 5 1017.1 1017.0 0.0
21/02:30am 19.6 21.4 18.8 95 0.5 S 7 9 4 5 1017.5 1017.4 0.0
21/02:00am 19.6 21.5 18.6 94 0.6 SSW 6 7 3 4 1017.8 1017.7 0.0
21/01:57am 19.6 21.9 18.6 94 0.6 SSW 4 7 2 4 1017.8 1017.7 0.0
21/01:30am 19.7 21.4 18.4 92 0.8 SSW 7 9 4 5 1018.1 1018.0 0.0
21/01:20am 19.8 21.4 18.3 91 0.9 SSW 7 9 4 5 1018.2 1018.1 0.0
21/01:00am 19.9 21.6 18.0 89 1.2 SSE 6 9 3 5 1018.3 1018.2 0.0
21/12:30am 19.6 20.7 18.1 91 0.9 SE 9 11 5 6 1018.5 1018.4 0.0
21/12:00am 19.7 20.0 17.8 89 1.2 SE 13 19 7 10 1018.7 1018.6 0.0
 
Date/Time
EDT
Temp
°C
App
Temp
°C
Dew
Point
Rel
Hum
%
Delta-T
°C
Wind Press
QNH
hPa
Press
MSL
hPa
Rain
since 9 am
mm
Dir
 
Spd
km/h
Gust
km/h
Spd
kts
Gust
kts
20/11:30pm 20.9 20.5 17.1 79 2.3 SE 15 20 8 11 1018.8 1018.7 0.0
20/11:00pm 21.9 22.1 16.8 73 3.1 S 11 13 6 7 1018.6 1018.5 0.0
20/10:30pm 22.1 22.9 16.4 70 3.5 SE 7 7 4 4 1018.5 1018.4 0.0
20/10:00pm 22.2 23.1 16.5 70 3.5 E 7 9 4 5 1018.1 1018.0 0.0
20/09:30pm 22.2 22.7 16.5 70 3.5 ESE 9 17 5 9 1017.8 1017.7 0.0
20/09:00pm 22.3 23.1 16.3 69 3.6 E 7 11 4 6 1017.5 1017.4 0.0
20/08:30pm 22.6 23.3 16.2 67 3.9 E 7 11 4 6 1017.1 1017.0 0.0
20/08:00pm 22.6 23.0 16.2 67 3.9 E 9 15 5 8 1016.6 1016.5 0.0
20/07:30pm 22.8 22.4 16.1 66 4.1 ENE 13 19 7 10 1016.2 1016.1 0.0
20/07:00pm 22.9 22.1 16.2 66 4.1 E 15 24 8 13 1015.8 1015.7 0.0
20/06:30pm 23.2 22.8 16.3 65 4.2 E 13 15 7 8 1015.5 1015.4 0.0
20/06:00pm 23.5 23.6 16.5 65 4.3 ENE 11 17 6 9 1014.9 1014.8 0.0
20/05:30pm 24.2 22.9 16.7 63 4.6 E 19 26 10 14 1014.6 1014.5 0.0
20/05:00pm 24.0 22.5 16.3 62 4.7 E 19 28 10 15 1014.4 1014.3 0.0
20/04:30pm 24.5 23.0 16.2 60 5.1 E 19 26 10 14 1014.4 1014.3 0.0
20/04:00pm 24.8 23.1 16.2 58 5.3 E 20 28 11 15 1014.6 1014.5 0.0
20/03:30pm 26.2 24.6 16.4 54 6.0 E 20 28 11 15 1014.9 1014.8 0.0
20/03:00pm 26.2 24.9 16.7 56 5.9 ENE 19 28 10 15 1015.1 1015.0 0.0
20/02:30pm 26.7 25.8 16.9 55 6.1 E 17 24 9 13 1015.2 1015.1 0.0
20/02:00pm 26.5 25.6 17.8 58 5.5 E 19 26 10 14 1015.6 1015.5 0.0
20/01:30pm 25.8 25.0 17.2 59 5.4 E 17 24 9 13 1015.9 1015.8 0.0
20/01:00pm 26.2 25.9 17.3 58 5.6 ESE 15 24 8 13 1016.2 1016.1 0.0
20/12:30pm 25.4 24.6 17.1 60 5.2 SE 17 26 9 14 1016.5 1016.4 0.0
20/12:00pm 25.1 24.4 16.5 59 5.3 ESE 15 24 8 13 1016.8 1016.7 0.0
20/11:30am 26.1 26.3 18.5 63 4.8 SE 15 20 8 11 1016.8 1016.7 0.0
20/11:00am 24.8 24.8 17.3 63 4.7 SE 13 22 7 12 1017.0 1016.9 0.0
20/10:30am 24.6 25.2 16.8 62 4.8 SSE 9 15 5 8 1017.0 1016.9 0.0
20/10:00am 24.2 25.3 17.0 64 4.4 ESE 7 13 4 7 1017.1 1017.0 0.0
20/09:30am 23.7 24.0 17.0 66 4.1 SSE 11 17 6 9 1017.1 1017.0 0.0
20/09:00am 23.9 24.2 16.9 65 4.3 SSE 11 19 6 10 1017.1 1017.0 0.0
20/08:30am 22.9 22.7 16.7 68 3.8 S 13 19 7 10 1017.0 1016.9 0.0
20/08:00am 21.9 22.2 17.1 74 2.9 S 11 13 6 7 1016.8 1016.7 0.0
20/07:30am 21.2 21.4 16.8 76 2.7 S 11 13 6 7 1016.4 1016.3 0.0
20/07:00am 20.8 21.8 16.8 78 2.4 SSW 7 9 4 5 1016.1 1016.0 0.0
20/06:30am 20.4 21.5 17.0 81 2.1 S 7 9 4 5 1015.7 1015.6 0.0
20/06:00am 20.2 21.3 16.6 80 2.2 SSW 6 7 3 4 1015.4 1015.3 0.0
20/05:30am 20.3 21.4 17.1 82 2.0 S 7 9 4 5 1015.2 1015.1 0.0
20/05:00am 20.5 21.9 17.3 82 2.0 SSW 6 7 3 4 1015.0 1014.9 0.0
20/04:30am 20.5 21.2 17.1 81 2.1 S 9 9 5 5 1014.9 1014.8 0.0
20/04:00am 20.8 21.4 16.8 78 2.4 SSW 9 11 5 6 1014.6 1014.5 0.0
20/03:30am 21.1 21.7 16.9 77 2.6 SSW 9 13 5 7 1014.6 1014.5 0.0
20/03:00am 21.1 21.8 17.1 78 2.4 SSW 9 11 5 6 1014.9 1014.8 0.0
20/02:30am 21.0 22.1 17.2 79 2.3 S 7 9 4 5 1015.1 1015.0 0.0
20/02:00am 21.0 22.2 17.4 80 2.2 S 7 11 4 6 1015.3 1015.2 0.0
20/01:30am 21.2 22.0 17.2 78 2.5 S 9 13 5 7 1015.5 1015.4 0.0
20/01:00am 21.4 21.5 17.4 78 2.5 S 13 19 7 10 1015.7 1015.6 0.0
20/12:30am 22.0 23.1 16.7 72 3.2 SW 6 9 3 5 1016.0 1015.9 0.0
20/12:00am 22.3 23.4 16.6 70 3.5 SSW 6 7 3 4 1016.1 1016.0 0.0
 
Date/Time
EDT
Temp
°C
App
Temp
°C
Dew
Point
Rel
Hum
%
Delta-T
°C
Wind Press
QNH
hPa
Press
MSL
hPa
Rain
since 9 am
mm
Dir
 
Spd
km/h
Gust
km/h
Spd
kts
Gust
kts
19/11:30pm 22.5 23.4 16.5 69 3.7 SSE 7 13 4 7 1016.0 1015.9 0.0
19/11:00pm 22.5 22.7 16.8 70 3.5 SSE 11 15 6 8 1015.9 1015.8 0.0
19/10:30pm 22.6 22.7 16.6 69 3.7 SE 11 17 6 9 1015.7 1015.6 0.0
19/10:00pm 22.6 23.1 16.6 69 3.7 SSE 9 15 5 8 1015.4 1015.3 0.0
19/09:30pm 23.0 23.4 16.3 66 4.1 SSE 9 15 5 8 1015.0 1014.9 0.0
19/09:00pm 23.3 23.6 15.9 63 4.5 SSE 9 13 5 7 1014.7 1014.6 0.0
19/08:30pm 23.4 22.8 15.7 62 4.6 S 13 22 7 12 1014.4 1014.3 0.0
19/08:00pm 23.6 23.2 16.1 62 4.6 SSE 13 17 7 9 1013.9 1013.8 0.0
19/07:30pm 23.6 22.7 16.9 66 4.1 SSE 17 24 9 13 1013.3 1013.2 0.0
19/07:00pm 23.8 22.7 16.3 63 4.6 SSE 17 30 9 16 1012.6 1012.5 0.0
19/06:30pm 24.5 23.2 17.2 63 4.5 SSE 20 30 11 16 1011.8 1011.7 0.0
19/06:00pm 24.9 22.8 16.3 59 5.3 SSE 22 37 12 20 1011.4 1011.3 0.0
19/05:30pm 25.2 22.8 15.5 55 5.9 SE 22 37 12 20 1010.9 1010.8 0.0
19/05:00pm 25.9 23.5 16.5 56 5.8 SE 24 39 13 21 1010.2 1010.1 0.0
19/04:30pm 26.1 23.7 16.4 55 6.0 SE 24 35 13 19 1009.9 1009.8 0.0
19/04:00pm 26.4 23.3 16.6 55 6.1 SSE 28 43 15 23 1009.8 1009.7 0.0
19/03:37pm 26.8 23.8 16.7 54 6.3 SSE 28 46 15 25 1009.7 1009.6 0.0
19/03:30pm 27.3 25.4 18.6 59 5.6 SE 26 39 14 21 1009.7 1009.6 0.0
19/03:00pm 27.0 24.6 16.3 52 6.6 SE 24 39 13 21 1009.6 1009.5 0.0
19/02:30pm 27.4 24.6 17.3 54 6.3 SSE 28 48 15 26 1009.5 1009.4 0.0
19/02:00pm 27.6 25.0 17.7 54 6.3 SE 28 43 15 23 1009.6 1009.5 0.0
19/01:30pm 28.7 25.9 17.2 49 7.2 SE 28 46 15 25 1009.3 1009.2 0.0
19/01:17pm 29.6 25.6 14.2 39 9.3 SE 28 46 15 25 1009.2 1009.1 0.0
19/01:02pm 31.3 29.5 12.2 31 11.3 SSW 13 41 7 22 1009.1 1009.0 0.0
19/01:00pm 32.6 32.1 12.8 30 11.9 SW 7 20 4 11 1009.0 1008.9 0.0
19/12:30pm 32.1 30.5 10.2 26 12.5 WNW 9 13 5 7 1009.0 1008.9 0.0
19/12:00pm 31.6 29.5 9.8 26 12.4 WSW 11 17 6 9 1009.3 1009.2 0.0
19/11:30am 30.9 28.9 12.8 33 10.7 WSW 15 24 8 13 1009.4 1009.3 0.0
19/11:00am 29.8 28.7 13.1 36 9.9 W 11 17 6 9 1009.6 1009.5 0.0
19/10:30am 29.0 27.8 14.0 39 9.0 W 13 20 7 11 1009.9 1009.8 0.0
19/10:10am 28.3 27.8 14.9 44 8.1 WSW 11 19 6 10 1009.9 1009.8 0.0
19/10:00am 27.8 26.6 14.1 43 8.2 W 13 22 7 12 1010.0 1009.9 0.0
19/09:30am 26.9 26.4 15.0 48 7.2 W 11 17 6 9 1010.0 1009.9 0.0
19/09:00am 25.9 25.9 16.2 55 6.0 WSW 11 19 6 10 1010.1 1010.0 19.2
19/08:30am 24.6 24.2 15.2 55 5.7 WSW 11 15 6 8 1010.2 1010.1 19.2

Other Formats:

Comma delimited format used in spreadsheet applications
http://www.bom.gov.au/fwo/IDN60801/IDN60801.95570.axf

JavaScript Object Notation format (JSON) in row-major order
http://www.bom.gov.au/fwo/IDN60801/IDN60801.95570.json